Dades meteomassalio
Diari Summary for Gener 10, 2017 Units:  English    Metric   Both
« Previous Day
Next Day »
Diari Semanal Mensual Anual Personalitzat
  Maxima: Minima: Mijana:
Temperatura: 54 °F 41.5 °F 48.6 °F
Rosada: 43.7 °F 35.6 °F 39.9 °F
Humitat: 81 % 65 % 72 %
Velocitat del vent: 39.1 mph 0 mph 20.3 mph
Racha vent: 39.1 mph - -
Vent:- - SW
Pressio: 30.2 in 29.9 in -
Pluja: 0 in    
Historical Graphs
 
 
Tabular Data for Gener 10, 2017
Time Temperature Dew Point Pressure Wind Wind Speed Wind Gust Humidity Rainfall Rate (Hourly) solar Conditions
00:03 41.5 °F 35.6 °F 30.2 in ENE 2.3 mph 2.3 mph 79 % 0 in 0.0 W/m2 CLR
00:08 42.6 °F 36.7 °F 30.2 in ENE 3.5 mph 3.5 mph 79 % 0 in 0.0 W/m2 CLR
00:13 43.3 °F 36.3 °F 30.2 in ENE 3 mph 3 mph 76 % 0 in 0.0 W/m2 CLR
00:18 43.9 °F 36.7 °F 30.2 in ENE 3.5 mph 3.5 mph 76 % 0 in 0.0 W/m2 CLR
00:23 44.1 °F 36.7 °F 30.2 in ENE 2.3 mph   75 % 0 in 0.0 W/m2 CLR
00:28 44.1 °F 36.1 °F 30.2 in ENE 1.2 mph   74 % 0 in 0.0 W/m2 CLR
00:33 43.5 °F 36.1 °F 30.2 in ENE 3.5 mph 3.5 mph 75 % 0 in 0.0 W/m2 CLR
00:38 43.3 °F 36 °F 30.2 in ENE 5.8 mph 5.8 mph 75 % 0 in 0.0 W/m2 CLR
00:43 43.3 °F 36.1 °F 30.2 in ENE 3.5 mph 3.5 mph 76 % 0 in 0.0 W/m2 CLR
00:48 43.3 °F 36.1 °F 30.2 in Calm     76 % 0 in 0.0 W/m2 CLR
00:58 43 °F 36 °F 30.2 in Calm     76 % 0 in 0.0 W/m2 CLR
01:03 43 °F 36 °F 30.2 in Calm     76 % 0 in 0.0 W/m2 CLR
01:08 43.2 °F 36.1 °F 30.2 in Calm     76 % 0 in 0.0 W/m2 CLR
01:13 43.3 °F 36.1 °F 30.2 in Calm     76 % 0 in 0.0 W/m2 CLR
01:18 43.3 °F 36.3 °F 30.2 in Calm     76 % 0 in 0.0 W/m2 CLR
01:23 43.5 °F 36.3 °F 30.2 in Calm     76 % 0 in 0.0 W/m2 CLR
01:28 43.7 °F 36.7 °F 30.2 in ENE 3.5 mph 3.5 mph 76 % 0 in 0.0 W/m2 CLR
01:33 43.9 °F 36.3 °F 30.2 in Calm     75 % 0 in 0.0 W/m2 CLR
01:38 43.5 °F 36.5 °F 30.2 in Calm     76 % 0 in 0.0 W/m2 CLR
01:43 43.5 °F 36.5 °F 30.2 in Calm     76 % 0 in 0.0 W/m2 CLR
01:48 43.5 °F 36.5 °F 30.2 in Calm     76 % 0 in 0.0 W/m2 CLR
01:53 43.7 °F 36.7 °F 30.2 in Calm     76 % 0 in 0.0 W/m2 CLR
01:58 43.7 °F 36.7 °F 30.2 in ENE 2.3 mph 2.3 mph 76 % 0 in 0.0 W/m2 CLR
02:03 44.1 °F 36.7 °F 30.2 in Calm   0.4 mph 75 % 0 in 0.0 W/m2 CLR
02:09 44.2 °F 36.9 °F 30.2 in ENE 2.3 mph 2.3 mph 75 % 0 in 0.0 W/m2 CLR
02:14 44.4 °F 37 °F 30.2 in ENE 3.5 mph 3.5 mph 75 % 0 in 0.0 W/m2 CLR
02:19 44.6 °F 36.9 °F 30.2 in ENE 1.2 mph 1.2 mph 74 % 0 in 0.0 W/m2 CLR
02:24 44.8 °F 36.9 °F 30.2 in Calm     74 % 0 in 0.0 W/m2 CLR
02:29 44.8 °F 36.9 °F 30.2 in Calm     74 % 0 in 0.0 W/m2 CLR
02:34 44.6 °F 36.9 °F 30.2 in ENE 3 mph 3 mph 74 % 0 in 0.0 W/m2 CLR
02:39 44.6 °F 36.9 °F 30.2 in Calm     74 % 0 in 0.0 W/m2 CLR
02:44 44.6 °F 36.9 °F 30.2 in Calm     74 % 0 in 0.0 W/m2 CLR
02:49 44.6 °F 36.9 °F 30.2 in Calm     74 % 0 in 0.0 W/m2 CLR
02:54 44.4 °F 36.7 °F 30.2 in Calm     74 % 0 in 0.0 W/m2 CLR
02:59 44.6 °F 36.9 °F 30.2 in Calm     74 % 0 in 0.0 W/m2 CLR
03:04 44.8 °F 36.7 °F 30.2 in ENE 7 mph 7 mph 73 % 0 in 0.0 W/m2 CLR
03:09 45.3 °F 36.9 °F 30.2 in ENE 4.6 mph 4.6 mph 72 % 0 in 0.0 W/m2 CLR
03:14 45.7 °F 36.9 °F 30.2 in ENE 8.1 mph 8.1 mph 71 % 0 in 0.0 W/m2 CLR
03:19 46 °F 36.9 °F 30.2 in ENE 6.9 mph 6.9 mph 70 % 0 in 0.0 W/m2 CLR
03:24 46.6 °F 37 °F 30.2 in ENE 11.5 mph 11.5 mph 69 % 0 in 0.0 W/m2 CLR
03:29 46.8 °F 37.2 °F 30.2 in ENE 11.5 mph 11.5 mph 69 % 0 in 0.0 W/m2 CLR
03:34 46.9 °F 37.2 °F 30.2 in ENE 12.7 mph 12.7 mph 69 % 0 in 0.0 W/m2 CLR
03:44 47.1 °F 36.7 °F 30.1 in ENE 13.8 mph 13.8 mph 67 % 0 in 0.0 W/m2 CLR
03:49 47.1 °F 36.7 °F 30.1 in ENE 18.4 mph 18.4 mph 67 % 0 in 0.0 W/m2 CLR
03:54 46.9 °F 36.7 °F 30.1 in ENE 11.5 mph 11.5 mph 67 % 0 in 0.0 W/m2 CLR
03:59 46.9 °F 36.5 °F 30.1 in ENE 16.1 mph 16.1 mph 67 % 0 in 0.0 W/m2 CLR
04:04 46.9 °F 36.7 °F 30.1 in ENE 15 mph 15 mph 67 % 0 in 0.0 W/m2 CLR
04:09 46.9 °F 36.7 °F 30.1 in ENE 12.7 mph 12.7 mph 67 % 0 in 0.0 W/m2 CLR
04:14 46.8 °F 36.3 °F 30.1 in ENE 17.3 mph 17.3 mph 67 % 0 in 0.0 W/m2 CLR
04:19 46.8 °F 36.7 °F 30.1 in ENE 12 mph 12 mph 68 % 0 in 0.0 W/m2 CLR
04:24 46.8 °F 37.2 °F 30.1 in ENE 16.1 mph 16.1 mph 69 % 0 in 0.0 W/m2 CLR
04:29 46.9 °F 37.4 °F 30.1 in ENE 12.7 mph 12.7 mph 69 % 0 in 0.0 W/m2 CLR
04:34 47.1 °F 37.4 °F 30.1 in ENE 16.1 mph 16.1 mph 69 % 0 in 0.0 W/m2 CLR
04:39 47.1 °F 37.8 °F 30.1 in ENE 13.8 mph 13.8 mph 70 % 0 in 0.0 W/m2 CLR
04:44 46.9 °F 37.8 °F 30.1 in ENE 12.7 mph 12.7 mph 70 % 0 in 0.0 W/m2 CLR
04:49 47.1 °F 37.8 °F 30.1 in ENE 11.5 mph 11.5 mph 70 % 0 in 0.0 W/m2 CLR
04:54 47.1 °F 37.4 °F 30.1 in ENE 13.8 mph 13.8 mph 69 % 0 in 0.0 W/m2 CLR
04:59 47.3 °F 37.6 °F 30.1 in ENE 13.8 mph 13.8 mph 69 % 0 in 0.0 W/m2 CLR
05:09 47.5 °F 37.8 °F 30.1 in ENE 13 mph 13 mph 69 % 0 in 0.0 W/m2 CLR
05:19 47.7 °F 37.9 °F 30.1 in ENE 16.1 mph 16.1 mph 69 % 0 in 0.0 W/m2 CLR
05:24 47.8 °F 38.1 °F 30.1 in ENE 11.5 mph 11.5 mph 69 % 0 in 0.0 W/m2 CLR
05:29 47.8 °F 38.5 °F 30.1 in ENE 16.1 mph 16.1 mph 70 % 0 in 0.0 W/m2 CLR
05:34 47.8 °F 38.5 °F 30.1 in ENE 16.1 mph 16.1 mph 70 % 0 in 0.0 W/m2 CLR
05:39 47.8 °F 38.7 °F 30.1 in ENE 16.1 mph 16.1 mph 70 % 0 in 0.0 W/m2 CLR
05:44 48.4 °F 38.7 °F 30.1 in ENE 17.3 mph 17.3 mph 69 % 0 in 0.0 W/m2 CLR
05:49 48.6 °F 38.5 °F 30.1 in ENE 16.1 mph 16.1 mph 68 % 0 in 0.0 W/m2 CLR
05:54 48.6 °F 38.5 °F 30.1 in ENE 16.1 mph 16.1 mph 68 % 0 in 0.0 W/m2 CLR
05:59 48.6 °F 38.1 °F 30.1 in ENE 19.6 mph 19.6 mph 67 % 0 in 0.0 W/m2 CLR
06:04 48.6 °F 38.1 °F 30.1 in ENE 19.6 mph 19.6 mph 67 % 0 in 0.0 W/m2 CLR
06:09 48.7 °F 37.8 °F 30.1 in ENE 20.7 mph 20.7 mph 66 % 0 in 0.0 W/m2 CLR
06:14 48.7 °F 37.9 °F 30.1 in ENE 15 mph 15 mph 66 % 0 in 0.0 W/m2 CLR
06:19 48.9 °F 37.9 °F 30.1 in ENE 19.6 mph 19.6 mph 66 % 0 in 0.0 W/m2 CLR
06:20 48.9 °F 37.9 °F 30.1 in ENE 19.6 mph 19.6 mph 66 % 0 in 0.0 W/m2 CLR
06:25 48.7 °F 37.9 °F 30.1 in ENE 19.6 mph 19.6 mph 66 % 0 in 0.0 W/m2 CLR
06:30 48.7 °F 37.8 °F 30.1 in ENE 17.3 mph 17.3 mph 66 % 0 in 0.0 W/m2 CLR
06:35 48.7 °F 37.8 °F 30.1 in ENE 18.4 mph 18.4 mph 66 % 0 in 0.0 W/m2 CLR
06:40 48.7 °F 38.1 °F 30.1 in ENE 19.6 mph 19.6 mph 67 % 0 in 0.0 W/m2 CLR
06:45 48.7 °F 38.3 °F 30.1 in ENE 18.4 mph 18.4 mph 67 % 0 in 0.0 W/m2 CLR
06:50 48.7 °F 38.7 °F 30.1 in ENE 18.4 mph 18.4 mph 68 % 0 in 0.0 W/m2 CLR
06:55 48.6 °F 38.8 °F 30.1 in ENE 21 mph 21 mph 69 % 0 in 0.0 W/m2 CLR
07:00 48.2 °F 38.5 °F 30.1 in ENE 20.7 mph 20.7 mph 69 % 0 in 0.0 W/m2 CLR
07:05 48 °F 38.8 °F 30.1 in ENE 21.9 mph 21.9 mph 70 % 0 in 0.0 W/m2 CLR
07:10 48 °F 38.8 °F 30.1 in ENE 25 mph 25 mph 70 % 0 in 0.0 W/m2 CLR
07:20 48.4 °F 38.7 °F 30.1 in ENE 23 mph 23 mph 69 % 0 in 0.0 W/m2 CLR
07:25 48.4 °F 38.7 °F 30.1 in ENE 19.6 mph 19.6 mph 69 % 0 in 0.0 W/m2 CLR
07:30 48.4 °F 38.7 °F 30.1 in ENE 20.7 mph 20.7 mph 69 % 0 in 0.0 W/m2 CLR
07:35 48.6 °F 38.8 °F 30.1 in ENE 25.3 mph 25.3 mph 69 % 0 in 0.0 W/m2 CLR
07:40 48.6 °F 38.8 °F 30.1 in ENE 17.3 mph 17.3 mph 69 % 0 in 0.0 W/m2 CLR
07:45 48.6 °F 38.8 °F 30.1 in ENE 20.7 mph 20.7 mph 69 % 0 in 0.0 W/m2 CLR
07:50 48.4 °F 38.7 °F 30.1 in ENE 19.6 mph 19.6 mph 69 % 0 in 0.0 W/m2 CLR
07:55 48.4 °F 38.7 °F 30.1 in ENE 17.3 mph 17.3 mph 69 % 0 in 0.0 W/m2 CLR
08:00 48.4 °F 38.7 °F 30.1 in ENE 19.6 mph 19.6 mph 69 % 0 in 0.0 W/m2 CLR
08:05 48 °F 38.8 °F 30.1 in ENE 15 mph 15.8 mph 70 % 0 in 0.0 W/m2 CLR
08:10 48 °F 38.7 °F 30.1 in ENE 15 mph 15 mph 70 % 0 in 0.0 W/m2 CLR
08:15 47.8 °F 38.7 °F 30.1 in ENE 19.6 mph 19.6 mph 70 % 0 in 0.0 W/m2 CLR
08:20 47.8 °F 38.7 °F 30.1 in ENE 15 mph 15 mph 70 % 0 in 0.0 W/m2 CLR
08:25 48 °F 38.7 °F 30.1 in ENE 17.3 mph 17.3 mph 70 % 0 in 0.0 W/m2 OVC
08:30 47.8 °F 38.5 °F 30.1 in NE 12 mph 12 mph 70 % 0 in 0.0 W/m2 OVC
08:35 48 °F 38.3 °F 30.1 in ENE 17.3 mph 17.3 mph 69 % 0 in 5.0 W/m2 BKN
08:40 48.2 °F 38.5 °F 30.1 in ENE 19.6 mph 19.6 mph 69 % 0 in 7.0 W/m2 BKN
08:45 48 °F 38.5 °F 30.1 in ENE 18.4 mph 18.4 mph 69 % 0 in 14.0 W/m2 BKN
08:50 48 °F 38.3 °F 30.1 in ENE 16.1 mph 16.1 mph 69 % 0 in 21.0 W/m2 BKN
08:55 47.8 °F 38.5 °F 30.1 in ENE 18.4 mph 18.4 mph 70 % 0 in 26.0 W/m2 BKN
09:00 47.8 °F 38.7 °F 30.1 in ENE 16.1 mph 16.1 mph 70 % 0 in 30.0 W/m2 BKN
09:05 47.8 °F 38.8 °F 30.1 in ENE 18.4 mph 18.4 mph 71 % 0 in 32.0 W/m2 BKN
09:10 47.8 °F 38.8 °F 30.1 in ENE 21.9 mph 21.9 mph 71 % 0 in 47.0 W/m2 BKN
09:15 48 °F 39.4 °F 30 in ENE 19.6 mph 19.6 mph 72 % 0 in 74.0 W/m2 BKN
09:20 48.2 °F 39.6 °F 30 in ENE 23 mph 23 mph 72 % 0 in 90.0 W/m2 BKN
09:25 48.4 °F 39.7 °F 30 in ENE 17.3 mph 17.3 mph 72 % 0 in 139.0 W/m2 BKN
09:30 48.7 °F 40.1 °F 30 in ENE 23 mph 23 mph 72 % 0 in 171.0 W/m2 SCT
09:35 48.7 °F 40.3 °F 30 in ENE 13.8 mph 13.8 mph 72 % 0 in 160.0 W/m2 SCT
09:40 48.9 °F 40.3 °F 30 in ENE 19.6 mph 19.6 mph 72 % 0 in 193.0 W/m2 SCT
09:45 49.1 °F 40.8 °F 30 in ENE 16 mph 16 mph 73 % 0 in 169.0 W/m2 SCT
09:50 48.9 °F 40.6 °F 30.1 in ENE 23 mph 23 mph 73 % 0 in 151.0 W/m2 SCT
09:55 48.9 °F 40.6 °F 30 in ENE 25.3 mph 25.3 mph 73 % 0 in 84.0 W/m2 BKN
10:00 48.7 °F 40.5 °F 30 in NE 17.3 mph 17.3 mph 73 % 0 in 53.0 W/m2 BKN
10:05 48.6 °F 40.3 °F 30 in NNW 24.2 mph 24.2 mph 73 % 0 in 58.0 W/m2 BKN
10:10 48.4 °F 40.5 °F 30 in NW 16.1 mph 16.1 mph 74 % 0 in 70.0 W/m2 BKN
10:15 48.4 °F 40.5 °F 30 in NW 21 mph 21 mph 74 % 0 in 72.0 W/m2 BKN
10:20 48.6 °F 40.6 °F 30 in NW 23 mph 23 mph 74 % 0 in 81.0 W/m2 BKN
10:25 48.6 °F 40.6 °F 30 in NW 27.6 mph 27.6 mph 74 % 0 in 81.0 W/m2 BKN
10:30 48.4 °F 41.2 °F 30 in NW 21.9 mph 21.9 mph 76 % 0 in 98.0 W/m2 BKN
10:35 48 °F 41.2 °F 30 in NW 26.5 mph 26.5 mph 77 % 0 in 104.0 W/m2 BKN
10:40 48 °F 41.2 °F 30 in NW 21 mph 21 mph 77 % 0 in 90.0 W/m2 BKN
10:45 48 °F 41.5 °F 30 in NW 16.1 mph 16.1 mph 78 % 0 in 100.0 W/m2 BKN
10:50 48.2 °F 41.4 °F 30 in NW 19.6 mph 19.6 mph 77 % 0 in 84.0 W/m2 BKN
10:55 48.2 °F 41.4 °F 30.1 in NW 15 mph 15 mph 77 % 0 in 105.0 W/m2 BKN
11:00 48.4 °F 41.4 °F 30.1 in NW 9.2 mph 9.2 mph 77 % 0 in 72.0 W/m2 BKN
11:05 48.4 °F 41.2 °F 30.1 in NW 16.1 mph 16.1 mph 76 % 0 in 77.0 W/m2 BKN
11:10 48.6 °F 41.4 °F 30 in NW 19.6 mph 19.6 mph 76 % 0 in 113.0 W/m2 BKN
11:15 48.7 °F 41.5 °F 30 in NW 17.3 mph 17.3 mph 76 % 0 in 113.0 W/m2 BKN
11:20 48.9 °F 41.4 °F 30 in NW 17.3 mph 17.3 mph 75 % 0 in 132.0 W/m2 BKN
11:25 48.9 °F 41.4 °F 30 in NW 21.9 mph 21.9 mph 75 % 0 in 163.0 W/m2 BKN
11:30 49.3 °F 41.4 °F 30 in NW 24.2 mph 24.2 mph 74 % 0 in 195.0 W/m2 BKN
11:35 49.6 °F 41.7 °F 30 in NW 18.4 mph 18.4 mph 74 % 0 in 220.0 W/m2 BKN
11:40 49.6 °F 41.4 °F 30 in NW 20.7 mph 20.7 mph 73 % 0 in 218.0 W/m2 BKN
11:45 49.8 °F 41.5 °F 30 in NW 17.3 mph 17.3 mph 73 % 0 in 227.0 W/m2 BKN
11:50 50.2 °F 41.7 °F 30 in NW 16.1 mph 16.1 mph 73 % 0 in 169.0 W/m2 BKN
11:55 50.2 °F 41.9 °F 30 in NW 23 mph 23 mph 73 % 0 in 207.0 W/m2 BKN
12:00 50.4 °F 41.5 °F 30 in NW 26.5 mph 26.5 mph 72 % 0 in 202.0 W/m2 BKN
12:05 50.5 °F 41.7 °F 30 in NW 21.9 mph 21.9 mph 72 % 0 in 200.0 W/m2 BKN
12:10 50.5 °F 41.9 °F 30 in NW 29.9 mph 29.9 mph 72 % 0 in 176.0 W/m2 BKN
12:15 50.7 °F 41.5 °F 30 in NW 23 mph 23 mph 71 % 0 in 169.0 W/m2 BKN
12:20 50.7 °F 41.7 °F 30 in NW 25 mph 25 mph 71 % 0 in 195.0 W/m2 BKN
12:25 51.1 °F 42.1 °F 30 in NW 27.6 mph 27.6 mph 71 % 0 in 202.0 W/m2 BKN
12:30 51.4 °F 41.9 °F 30 in NW 28.8 mph 28.8 mph 70 % 0 in 183.0 W/m2 BKN
12:35 51.4 °F 42.1 °F 30 in NW 26.5 mph 26.5 mph 70 % 0 in 155.0 W/m2 BKN
12:40 51.6 °F 42.1 °F 30 in NW 33.4 mph 33.4 mph 70 % 0 in 148.0 W/m2 BKN
12:45 51.6 °F 42.1 °F 30 in NW 32.2 mph 32.2 mph 70 % 0 in 207.0 W/m2 BKN
12:50 52 °F 42.4 °F 29.9 in NW 28.8 mph 28.8 mph 70 % 0 in 234.0 W/m2 BKN
12:56 52.2 °F 42.6 °F 29.9 in NW 32 mph 32 mph 70 % 0 in 223.0 W/m2 BKN
13:01 52.2 °F 42.6 °F 30 in NW 35 mph 35 mph 70 % 0 in 241.0 W/m2 BKN
13:06 52.3 °F 43 °F 30 in NW 26.5 mph 26.5 mph 70 % 0 in 373.0 W/m2 SCT
13:11 52.5 °F 42.6 °F 29.9 in NW 32.2 mph 32.2 mph 69 % 0 in 218.0 W/m2 SCT
13:16 52.5 °F 42.6 °F 30 in NNW 39.1 mph 39.1 mph 69 % 0 in 376.0 W/m2 SCT
13:21 52.3 °F 42.4 °F 29.9 in NNW 38 mph 38 mph 69 % 0 in 190.0 W/m2 SCT
13:26 52.3 °F 42.8 °F 29.9 in NW 32.2 mph 32.2 mph 70 % 0 in 200.0 W/m2 BKN
13:31 52.2 °F 42.6 °F 29.9 in NW 32.2 mph 32.2 mph 70 % 0 in 186.0 W/m2 BKN
13:36 52.7 °F 43.2 °F 29.9 in NNW 29.9 mph 29.9 mph 70 % 0 in 371.0 W/m2 SCT
13:46 53.6 °F 43.7 °F 29.9 in NW 32.2 mph 32.2 mph 69 % 0 in 441.0 W/m2 CLR
13:51 53.6 °F 43.7 °F 29.9 in NW 34.5 mph 34.5 mph 69 % 0 in 534.0 W/m2 CLR
13:56 53.4 °F 43.2 °F 29.9 in NW 32.2 mph 32.2 mph 68 % 0 in 221.0 W/m2 CLR
14:01 53.2 °F 43.3 °F 29.9 in NNW 35 mph 35 mph 69 % 0 in 274.0 W/m2 SCT
14:06 52.9 °F 43 °F 29.9 in NNW 38 mph 38 mph 69 % 0 in 279.0 W/m2 SCT
14:11 52.9 °F 43 °F 29.9 in NNW 33.4 mph 33.4 mph 69 % 0 in 257.0 W/m2 SCT
14:16 52.9 °F 43 °F 29.9 in NNW 32.2 mph 32.2 mph 69 % 0 in 239.0 W/m2 SCT
14:21 53.1 °F 42.6 °F 29.9 in NNW 36.8 mph 36.8 mph 68 % 0 in 308.0 W/m2 SCT
14:26 53.2 °F 43 °F 29.9 in NNW 34.5 mph 34.5 mph 68 % 0 in 322.0 W/m2 SCT
14:31 53.4 °F 43.2 °F 29.9 in NNW 36.8 mph 36.8 mph 68 % 0 in 362.0 W/m2 FEW
14:36 53.6 °F 43.3 °F 29.9 in NNW 34.5 mph 34.5 mph 68 % 0 in 330.0 W/m2 CLR
14:41 53.6 °F 43.3 °F 29.9 in NNW 31.1 mph 31.1 mph 68 % 0 in 323.0 W/m2 CLR
14:46 53.4 °F 43.2 °F 29.9 in NNW 34.5 mph 34.5 mph 68 % 0 in 325.0 W/m2 FEW
14:51 53.6 °F 43.3 °F 29.9 in NW 29.9 mph 29.9 mph 68 % 0 in 309.0 W/m2 FEW
14:56 53.8 °F 43.3 °F 29.9 in NW 31.1 mph 31.1 mph 68 % 0 in 357.0 W/m2 CLR
15:01 53.8 °F 43.2 °F 29.9 in NW 36.8 mph 36.8 mph 67 % 0 in 322.0 W/m2 CLR
15:06 54 °F 43.3 °F 29.9 in NW 29.9 mph 29.9 mph 67 % 0 in 272.0 W/m2 CLR
15:11 53.8 °F 43.2 °F 29.9 in NNW 35.7 mph 35.7 mph 67 % 0 in 185.0 W/m2 CLR
15:16 53.8 °F 43.3 °F 29.9 in NNW 37 mph 37 mph 68 % 0 in 251.0 W/m2 FEW
15:21 53.8 °F 43 °F 29.9 in NW 28.8 mph 28.8 mph 67 % 0 in 225.0 W/m2 FEW
15:26 53.8 °F 42.6 °F 29.9 in NW 26.5 mph 26.5 mph 66 % 0 in 172.0 W/m2 FEW
15:31 54 °F 43 °F 29.9 in NW 31.1 mph 31.1 mph 66 % 0 in 207.0 W/m2 FEW
15:36 54 °F 42.4 °F 29.9 in NW 29.9 mph 29.9 mph 65 % 0 in 223.0 W/m2 FEW
15:41 54 °F 42.4 °F 29.9 in NW 25.3 mph 25.3 mph 65 % 0 in 197.0 W/m2 FEW
15:46 54 °F 42.4 °F 29.9 in NW 35.7 mph 35.7 mph 65 % 0 in 134.0 W/m2 FEW
15:51 53.8 °F 42.3 °F 29.9 in NW 29.9 mph 29.9 mph 65 % 0 in 186.0 W/m2 FEW
15:56 53.8 °F 42.3 °F 29.9 in NW 20.7 mph 20.7 mph 65 % 0 in 190.0 W/m2 FEW
16:01 53.6 °F 42.1 °F 29.9 in NW 20.7 mph 20.7 mph 65 % 0 in 153.0 W/m2 CLR
16:06 53.6 °F 42.1 °F 29.9 in NW 24.2 mph 24.2 mph 65 % 0 in 176.0 W/m2 CLR
16:11 53.8 °F 42.3 °F 29.9 in NW 19.6 mph 19.6 mph 65 % 0 in 167.0 W/m2 CLR
16:16 53.6 °F 42.1 °F 29.9 in NW 29.9 mph 29.9 mph 65 % 0 in 135.0 W/m2 CLR
16:21 53.4 °F 42.1 °F 29.9 in NW 15 mph 15 mph 65 % 0 in 104.0 W/m2 CLR
16:26 53.2 °F 41.7 °F 29.9 in NW 28 mph 28 mph 65 % 0 in 102.0 W/m2 CLR
16:31 53.2 °F 41.7 °F 29.9 in NW 27.6 mph 27.6 mph 65 % 0 in 107.0 W/m2 CLR
16:36 53.1 °F 41.5 °F 29.9 in NW 20.7 mph 20.7 mph 65 % 0 in 83.0 W/m2 CLR
16:41 52.9 °F 41.4 °F 29.9 in NW 25 mph 25 mph 65 % 0 in 86.0 W/m2 CLR
16:46 52.9 °F 41.4 °F 29.9 in NW 22 mph 22 mph 65 % 0 in 77.0 W/m2 CLR
16:51 52.7 °F 41.7 °F 29.9 in NW 27.6 mph 27.6 mph 66 % 0 in 70.0 W/m2 CLR
16:56 52.5 °F 41.5 °F 29.9 in NW 20.7 mph 20.7 mph 66 % 0 in 60.0 W/m2 CLR
17:01 52.3 °F 41.4 °F 29.9 in NW 27 mph 27 mph 66 % 0 in 42.0 W/m2 CLR
17:06 52.2 °F 41.2 °F 29.9 in NW 25.3 mph 25.3 mph 66 % 0 in 28.0 W/m2 OVC
17:11 52 °F 40.8 °F 29.9 in NW 34.5 mph 34.5 mph 66 % 0 in 21.0 W/m2 OVC
17:16 51.6 °F 41.2 °F 29.9 in NW 26.5 mph 26.5 mph 67 % 0 in 19.0 W/m2 OVC
17:21 51.4 °F 40.8 °F 29.9 in NW 24.2 mph 24.2 mph 67 % 0 in 21.0 W/m2 OVC
17:26 51.4 °F 40.8 °F 29.9 in NW 31 mph 31 mph 67 % 0 in 18.0 W/m2 OVC
17:31 51.3 °F 41.2 °F 29.9 in NW 26.5 mph 26.5 mph 68 % 0 in 12.0 W/m2 OVC
17:36 51.1 °F 40.8 °F 29.9 in NW 20 mph 20 mph 68 % 0 in 9.0 W/m2 OVC
17:41 50.9 °F 40.6 °F 29.9 in NW 26.5 mph 26.5 mph 68 % 0 in 7.0 W/m2 OVC
17:46 50.9 °F 40.6 °F 29.9 in NW 36.8 mph 36.8 mph 68 % 0 in 0.0 W/m2
17:51 50.7 °F 40.6 °F 29.9 in NW 28.8 mph 28.8 mph 68 % 0 in 0.0 W/m2 OVC
17:56 50.7 °F 40.6 °F 29.9 in NW 33.4 mph 33.4 mph 68 % 0 in 0.0 W/m2
18:01 50.5 °F 40.8 °F 30 in NW 26.5 mph 26.5 mph 69 % 0 in 0.0 W/m2 CLR
18:06 50.4 °F 40.6 °F 30 in NW 23 mph 23 mph 69 % 0 in 0.0 W/m2 CLR
18:12 50.2 °F 40.8 °F 30 in NW 26.5 mph 26.5 mph 70 % 0 in 0.0 W/m2 CLR
18:17 50.2 °F 40.8 °F 30 in NW 34.5 mph 34.5 mph 70 % 0 in 0.0 W/m2 CLR
18:22 50 °F 41 °F 30 in NW 23 mph 23 mph 71 % 0 in 0.0 W/m2 CLR
18:27 49.8 °F 40.8 °F 30 in NNW 24 mph 24 mph 71 % 0 in 0.0 W/m2 CLR
18:32 49.8 °F 40.8 °F 30 in NW 34.5 mph 34.5 mph 71 % 0 in 0.0 W/m2 CLR
18:37 49.8 °F 40.8 °F 30 in NW 28.8 mph 28.8 mph 71 % 0 in 0.0 W/m2 CLR
18:42 49.6 °F 40.6 °F 30 in NW 32 mph 32 mph 71 % 0 in 0.0 W/m2 CLR
18:47 49.6 °F 40.8 °F 30 in NW 28.8 mph 28.8 mph 72 % 0 in 0.0 W/m2 CLR
18:52 49.6 °F 40.8 °F 30 in NW 31 mph 31 mph 72 % 0 in 0.0 W/m2 CLR
18:57 49.6 °F 40.6 °F 30 in NW 33.4 mph 33.4 mph 71 % 0 in 0.0 W/m2
19:02 49.5 °F 40.5 °F 30 in NW 33 mph 33 mph 71 % 0 in 0.0 W/m2 CLR
19:07 49.5 °F 40.5 °F 30 in NW 27.6 mph 27.6 mph 71 % 0 in 0.0 W/m2 CLR
19:12 49.3 °F 40.6 °F 30 in NW 25.3 mph 25.3 mph 72 % 0 in 0.0 W/m2 CLR
19:17 49.3 °F 40.8 °F 30 in NW 24.2 mph 24.2 mph 73 % 0 in 0.0 W/m2 CLR
19:22 49.1 °F 40.8 °F 30 in NW 34.5 mph 34.5 mph 73 % 0 in 0.0 W/m2 CLR
19:27 49.1 °F 40.8 °F 30 in NW 24.2 mph 24.2 mph 73 % 0 in 0.0 W/m2 CLR
19:32 48.9 °F 40.6 °F 30 in NW 23 mph 23 mph 73 % 0 in 0.0 W/m2 CLR
19:37 48.7 °F 40.5 °F 30 in NW 26.5 mph 26.5 mph 73 % 0 in 0.0 W/m2 CLR
19:42 48.7 °F 40.5 °F 30 in NW 33.4 mph 33.4 mph 73 % 0 in 0.0 W/m2 CLR
19:47 48.6 °F 40.6 °F 30 in NW 23 mph 23 mph 74 % 0 in 0.0 W/m2 CLR
19:52 48.6 °F 40.6 °F 30 in NW 24.2 mph 24.2 mph 74 % 0 in 0.0 W/m2 CLR
19:57 48.4 °F 40.5 °F 30 in NW 28.8 mph 28.8 mph 74 % 0 in 0.0 W/m2 CLR
20:02 48.4 °F 40.5 °F 30 in NW 26 mph 26 mph 74 % 0 in 0.0 W/m2 CLR
20:07 48.4 °F 40.6 °F 30 in NW 28.8 mph 28.8 mph 75 % 0 in 0.0 W/m2 CLR
20:12 48 °F 40.5 °F 30 in NW 26.5 mph 26.5 mph 75 % 0 in 0.0 W/m2 CLR
20:17 47.8 °F 40.5 °F 30 in NW 20.7 mph 20.7 mph 75 % 0 in 0.0 W/m2 CLR
20:22 47.7 °F 40.5 °F 30 in NW 21.9 mph 21.9 mph 76 % 0 in 0.0 W/m2 CLR
20:27 47.7 °F 40.5 °F 30 in NW 20.7 mph 20.7 mph 76 % 0 in 0.0 W/m2 CLR
20:32 47.7 °F 40.5 °F 30 in NW 19 mph 19 mph 76 % 0 in 0.0 W/m2 CLR
20:37 47.5 °F 40.3 °F 30 in NW 21.9 mph 21.9 mph 76 % 0 in 0.0 W/m2 CLR
20:42 47.3 °F 40.5 °F 30 in NW 23 mph 23 mph 77 % 0 in 0.0 W/m2 CLR
20:47 47.3 °F 40.5 °F 30 in NW 26.5 mph 26.5 mph 77 % 0 in 0.0 W/m2 CLR
20:52 47.1 °F 40.6 °F 30 in NW 20.7 mph 20.7 mph 78 % 0 in 0.0 W/m2 CLR
20:57 47.1 °F 40.6 °F 30 in NW 17.3 mph 17.3 mph 78 % 0 in 0.0 W/m2 CLR
21:02 46.9 °F 40.5 °F 30 in NW 19.6 mph 20 mph 78 % 0 in 0.0 W/m2 CLR
21:07 46.9 °F 40.8 °F 30 in NW 21 mph 21 mph 79 % 0 in 0.0 W/m2 CLR
21:12 46.9 °F 40.6 °F 30 in NW 25.3 mph 25.3 mph 79 % 0 in 0.0 W/m2 CLR
21:17 46.9 °F 40.6 °F 30 in NW 19.6 mph 19.6 mph 79 % 0 in 0.0 W/m2 CLR
21:22 46.9 °F 40.6 °F 30 in NW 27.6 mph 27.6 mph 79 % 0 in 0.0 W/m2 CLR
21:27 46.9 °F 40.6 °F 30 in NW 26.5 mph 26.5 mph 79 % 0 in 0.0 W/m2 CLR
21:32 46.9 °F 40.6 °F 30 in NW 24.2 mph 24.2 mph 79 % 0 in 0.0 W/m2 CLR
21:37 46.9 °F 40.8 °F 30 in NW 25.3 mph 25.3 mph 79 % 0 in 0.0 W/m2 CLR
21:42 46.9 °F 40.8 °F 30 in NW 26.5 mph 26.5 mph 79 % 0 in 0.0 W/m2 CLR
21:47 46.8 °F 40.6 °F 30 in NW 18.4 mph 18.4 mph 79 % 0 in 0.0 W/m2 CLR
21:52 46.8 °F 40.8 °F 30 in NW 23 mph 23 mph 80 % 0 in 0.0 W/m2 CLR
21:57 46.6 °F 40.6 °F 30 in NW 26.5 mph 26.5 mph 80 % 0 in 0.0 W/m2 CLR
22:02 46.6 °F 41 °F 30 in NW 20.7 mph 20.7 mph 81 % 0 in 0.0 W/m2 CLR
22:07 46.6 °F 41 °F 30 in NW 25.3 mph 25.3 mph 81 % 0 in 0.0 W/m2 CLR
22:12 46.4 °F 40.8 °F 30 in NW 26.5 mph 26.5 mph 81 % 0 in 0.0 W/m2 CLR
22:17 46.4 °F 40.8 °F 30 in NW 24.2 mph 24.2 mph 81 % 0 in 0.0 W/m2 CLR
22:22 46.4 °F 40.6 °F 30 in NW 17.3 mph 17.3 mph 80 % 0 in 0.0 W/m2 CLR
22:27 46.4 °F 40.8 °F 30 in NW 25.3 mph 25.3 mph 81 % 0 in 0.0 W/m2 CLR
22:32 46.4 °F 40.6 °F 30 in NW 20.7 mph 20.7 mph 80 % 0 in 0.0 W/m2 CLR
22:37 46.4 °F 40.8 °F 30 in NW 25.3 mph 25.3 mph 81 % 0 in 0.0 W/m2 CLR
22:42 46.2 °F 40.8 °F 30 in NW 23 mph 23 mph 81 % 0 in 0.0 W/m2 CLR
22:47 46.2 °F 40.8 °F 30 in NW 26.5 mph 26.5 mph 81 % 0 in 0.0 W/m2 CLR
22:52 46.4 °F 40.6 °F 30 in NW 22 mph 22 mph 80 % 0 in 0.0 W/m2 CLR
22:57 46.2 °F 40.6 °F 30 in NW 16 mph 16 mph 81 % 0 in 0.0 W/m2 CLR
23:02 46.2 °F 40.6 °F 30 in NW 21.9 mph 21.9 mph 81 % 0 in 0.0 W/m2 CLR
23:07 46.2 °F 40.6 °F 30 in NW 23 mph 23 mph 81 % 0 in 0.0 W/m2 CLR
23:12 46 °F 40.6 °F 30 in NW 19.6 mph 19.6 mph 81 % 0 in 0.0 W/m2 CLR
23:17 46 °F 40.6 °F 30 in NW 19.6 mph 19.6 mph 81 % 0 in 0.0 W/m2 CLR
23:22 46.2 °F 40.6 °F 30 in NW 21.9 mph 21.9 mph 81 % 0 in 0.0 W/m2 CLR
23:27 46 °F 40.5 °F 30 in NW 21.9 mph 21.9 mph 81 % 0 in 0.0 W/m2 CLR
23:32 46 °F 40.6 °F 30 in NW 24.2 mph 24.2 mph 81 % 0 in 0.0 W/m2 CLR
23:37 46 °F 40.6 °F 30 in NW 23 mph 23 mph 81 % 0 in 0.0 W/m2 CLR
23:42 46 °F 40.6 °F 30 in NW 19.6 mph 19.6 mph 81 % 0 in 0.0 W/m2 CLR
23:47 45.9 °F 40.5 °F 30 in NW 19.6 mph 19.6 mph 81 % 0 in 0.0 W/m2 CLR
23:52 46 °F 40.5 °F 30 in NW 21.9 mph 21.9 mph 81 % 0 in 0.0 W/m2 CLR
23:57 46 °F 40.5 °F 30 in NW 19.6 mph 19.6 mph 81 % 0 in 0.0 W/m2 CLR
Lo Temps de Massalio
Compliments of Weather Underground - 1.25 mb